createdAt,value
2023-03-08T00:00:21.129Z,79.89
2023-03-08T00:03:17.941Z,80.04
2023-03-08T00:05:45.533Z,80.01
2023-03-08T00:08:14.972Z,80.26
2023-03-08T00:10:45.296Z,80.34
2023-03-08T00:13:13.517Z,80.46
2023-03-08T00:15:41.624Z,80.48
2023-03-08T00:18:11.995Z,80.63
2023-03-08T00:20:42.334Z,80.78
2023-03-08T00:23:29.787Z,80.86
2023-03-08T00:26:11.789Z,80.73
2023-03-08T00:28:59.444Z,80.74
2023-03-08T00:31:38.003Z,80.84
2023-03-08T00:34:08.550Z,80.85
2023-03-08T00:36:41.013Z,80.97
2023-03-08T00:39:28.445Z,81.07
2023-03-08T00:42:09.367Z,81.14
2023-03-08T00:44:57.025Z,81.25
2023-03-08T00:47:45.088Z,81.26
2023-03-08T00:50:32.867Z,81.28
2023-03-08T00:53:09.655Z,81.29
2023-03-08T00:55:53.163Z,81.33
2023-03-08T00:58:31.649Z,81.59
2023-03-08T01:01:01.891Z,81.66
2023-03-08T01:03:34.434Z,81.65
2023-03-08T01:06:15.360Z,81.69
2023-03-08T01:08:46.352Z,81.55
2023-03-08T01:11:26.150Z,81.78
2023-03-08T01:13:57.484Z,81.85
2023-03-08T01:16:27.163Z,81.91
2023-03-08T01:18:54.823Z,81.83
2023-03-08T01:21:42.687Z,81.82
2023-03-08T01:24:12.218Z,81.89
2023-03-08T01:26:41.963Z,82.08
2023-03-08T01:29:09.253Z,81.96
2023-03-08T01:31:50.891Z,82.02
2023-03-08T01:34:37.224Z,82.02
2023-03-08T01:37:07.392Z,82.09
2023-03-08T01:39:35.138Z,82.05
2023-03-08T01:42:12.956Z,82.18
2023-03-08T01:45:01.619Z,82.31
2023-03-08T01:47:32.546Z,82.29
2023-03-08T01:50:23.672Z,82.37
2023-03-08T01:52:57.262Z,82.42
2023-03-08T01:55:45.408Z,82.51
2023-03-08T01:58:26.627Z,82.44
2023-03-08T02:01:11.965Z,82.59
2023-03-08T02:03:51.509Z,82.59
2023-03-08T02:06:39.352Z,82.62
2023-03-08T02:09:09.916Z,82.53
2023-03-08T02:11:40.242Z,82.53
2023-03-08T02:14:08.017Z,82.50
2023-03-08T02:16:39.361Z,82.54
2023-03-08T02:19:28.994Z,82.52
2023-03-08T02:21:59.926Z,82.45
2023-03-08T02:24:30.410Z,82.46
2023-03-08T02:27:08.339Z,82.42
2023-03-08T02:29:36.227Z,82.48
2023-03-08T02:32:07.389Z,82.43
2023-03-08T02:34:55.335Z,82.34
2023-03-08T02:37:22.528Z,82.28
2023-03-08T02:40:02.509Z,82.20
2023-03-08T02:42:40.011Z,82.30
2023-03-08T02:45:28.933Z,82.09
2023-03-08T02:47:56.115Z,82.13
2023-03-08T02:50:44.367Z,82.15
2023-03-08T02:53:11.577Z,82.08
2023-03-08T02:55:49.616Z,82.20
2023-03-08T02:58:17.997Z,82.02
2023-03-08T03:01:11.729Z,81.99
2023-03-08T03:03:42.913Z,82.10
2023-03-08T03:06:22.514Z,81.97
2023-03-08T03:08:53.193Z,82.02
2023-03-08T03:11:23.246Z,82.00
2023-03-08T03:13:58.083Z,81.97
2023-03-08T03:16:45.598Z,82.14
2023-03-08T03:19:15.830Z,82.01
2023-03-08T03:21:43.313Z,82.15
2023-03-08T03:24:10.899Z,82.16
2023-03-08T03:26:54.765Z,82.38
2023-03-08T03:29:42.478Z,82.36
2023-03-08T03:32:21.077Z,82.50
2023-03-08T03:34:55.307Z,82.37
2023-03-08T03:37:31.982Z,82.52
2023-03-08T03:40:20.244Z,82.71
2023-03-08T03:42:51.700Z,82.85
2023-03-08T03:45:39.314Z,82.83
2023-03-08T03:48:27.353Z,82.87
2023-03-08T03:51:00.485Z,82.95
2023-03-08T03:53:39.177Z,83.11
2023-03-08T03:56:28.948Z,83.16
2023-03-08T03:58:59.104Z,83.22
2023-03-08T04:01:28.989Z,83.28
2023-03-08T04:04:02.593Z,83.31
2023-03-08T04:06:50.538Z,83.38
2023-03-08T04:09:38.476Z,83.39
2023-03-08T04:12:10.585Z,83.33
2023-03-08T04:14:58.062Z,83.61
2023-03-08T04:17:30.484Z,83.56
2023-03-08T04:20:08.641Z,83.63
2023-03-08T04:22:41.384Z,83.77
2023-03-08T04:25:15.878Z,83.83
2023-03-08T04:28:03.580Z,83.91
2023-03-08T04:30:41.713Z,84.03
2023-03-08T04:33:12.445Z,84.02
2023-03-08T04:35:45.351Z,83.97
2023-03-08T04:38:33.764Z,83.96
2023-03-08T04:41:22.194Z,83.90
2023-03-08T04:44:05.231Z,84.02
2023-03-08T04:46:46.505Z,83.98
2023-03-08T04:49:17.677Z,84.12
2023-03-08T04:51:47.585Z,84.02
2023-03-08T04:54:14.945Z,84.13
2023-03-08T04:56:55.874Z,84.19
2023-03-08T04:59:34.755Z,84.33
2023-03-08T05:02:05.961Z,84.26
2023-03-08T05:04:45.709Z,84.36
2023-03-08T05:07:15.703Z,84.43
2023-03-08T05:09:54.385Z,84.48
2023-03-08T05:12:32.287Z,84.39
2023-03-08T05:15:00.778Z,84.42
2023-03-08T05:17:37.631Z,84.48
2023-03-08T05:20:09.479Z,84.43
2023-03-08T05:22:57.176Z,84.20
2023-03-08T05:25:45.717Z,84.25
2023-03-08T05:28:37.524Z,84.19
2023-03-08T05:31:12.299Z,83.91
2023-03-08T05:34:00.053Z,83.69
2023-03-08T05:36:37.087Z,83.54
2023-03-08T05:39:08.066Z,83.34
2023-03-08T05:41:41.462Z,83.15
2023-03-08T05:44:09.737Z,83.12
2023-03-08T05:46:39.184Z,83.04
2023-03-08T05:49:07.317Z,83.15
2023-03-08T05:51:40.202Z,83.14
2023-03-08T05:54:12.027Z,83.09
2023-03-08T05:56:40.538Z,82.95
2023-03-08T05:59:18.858Z,82.98
2023-03-08T06:01:46.964Z,82.60
2023-03-08T06:04:36.907Z,82.48
2023-03-08T06:07:04.772Z,82.31
2023-03-08T06:09:42.060Z,82.23
2023-03-08T06:12:13.202Z,81.94
2023-03-08T06:14:44.835Z,81.98
2023-03-08T06:17:32.631Z,81.99
2023-03-08T06:20:20.711Z,81.55
2023-03-08T06:23:00.767Z,80.99
2023-03-08T06:25:28.673Z,80.36
2023-03-08T06:28:16.666Z,79.75
2023-03-08T06:31:02.814Z,79.27
2023-03-08T06:33:36.343Z,78.75
2023-03-08T06:36:10.038Z,77.80
2023-03-08T06:38:47.762Z,77.85
2023-03-08T06:41:20.348Z,77.73
2023-03-08T06:43:51.380Z,74.09
2023-03-08T06:46:20.364Z,72.76
2023-03-08T06:48:49.845Z,70.09
2023-03-08T06:51:17.369Z,65.34
2023-03-08T06:53:45.485Z,64.78
2023-03-08T06:56:17.067Z,62.41
2023-03-08T06:58:44.834Z,59.66
2023-03-08T07:01:13.945Z,56.84
2023-03-08T07:03:41.261Z,54.98
2023-03-08T07:06:10.299Z,52.72
2023-03-08T07:08:39.406Z,51.44
2023-03-08T07:11:08.906Z,48.72
2023-03-08T07:13:36.567Z,48.24
2023-03-08T07:16:09.502Z,46.11
2023-03-08T07:18:37.013Z,44.86
2023-03-08T07:21:04.927Z,43.34
2023-03-08T07:23:32.160Z,42.75
2023-03-08T07:25:59.525Z,41.47
2023-03-08T07:28:27.061Z,41.42
2023-03-08T07:30:55.393Z,41.02
2023-03-08T07:33:23.435Z,40.74
2023-03-08T07:35:51.351Z,39.69
2023-03-08T07:38:18.801Z,38.39
2023-03-08T07:40:46.013Z,37.85
2023-03-08T07:43:13.861Z,37.29
2023-03-08T07:45:56.823Z,37.59
2023-03-08T07:48:24.277Z,36.66
2023-03-08T07:50:51.340Z,38.05
2023-03-08T07:53:18.456Z,39.75
2023-03-08T07:55:45.846Z,40.04
2023-03-08T07:58:13.591Z,39.18
2023-03-08T08:00:41.206Z,39.96
2023-03-08T08:03:08.726Z,39.74
2023-03-08T08:05:37.882Z,39.49
2023-03-08T08:08:05.444Z,39.73
2023-03-08T08:10:32.733Z,39.86
2023-03-08T08:13:00.228Z,39.49
2023-03-08T08:15:27.894Z,38.29
2023-03-08T08:17:55.372Z,38.46
2023-03-08T08:20:25.403Z,38.67
2023-03-08T08:22:53.603Z,36.99
2023-03-08T08:25:21.769Z,36.71
2023-03-08T08:27:49.069Z,37.31
2023-03-08T08:30:17.791Z,36.56
2023-03-08T08:32:45.243Z,36.50
2023-03-08T08:35:13.051Z,36.60
2023-03-08T08:37:40.127Z,36.38
2023-03-08T08:40:10.653Z,36.97
2023-03-08T08:42:37.830Z,37.31
2023-03-08T08:45:05.292Z,37.91
2023-03-08T08:47:33.317Z,37.87
2023-03-08T08:50:00.427Z,38.32
2023-03-08T08:52:27.945Z,37.98
2023-03-08T08:54:57.037Z,38.02
2023-03-08T08:57:24.301Z,37.57
2023-03-08T08:59:51.402Z,37.72
2023-03-08T09:02:19.010Z,37.14
2023-03-08T09:04:46.932Z,36.48
2023-03-08T09:07:14.241Z,36.39
2023-03-08T09:09:41.508Z,36.58
2023-03-08T09:12:09.615Z,35.74
2023-03-08T09:14:37.105Z,35.97
2023-03-08T09:17:06.592Z,36.52
2023-03-08T09:19:33.812Z,36.59
2023-03-08T09:22:00.913Z,36.25
2023-03-08T09:24:28.189Z,35.29
2023-03-08T09:26:55.386Z,35.64
2023-03-08T09:29:22.426Z,34.89
2023-03-08T09:31:49.732Z,34.97
2023-03-08T09:34:16.936Z,34.73
2023-03-08T09:36:45.455Z,34.41
2023-03-08T09:39:14.432Z,34.28
2023-03-08T09:41:52.826Z,35.26
2023-03-08T09:44:44.188Z,34.44
2023-03-08T09:47:20.176Z,34.60
2023-03-08T09:49:53.895Z,34.33
2023-03-08T09:52:30.940Z,34.02
2023-03-08T09:54:57.460Z,33.66
2023-03-08T09:57:29.507Z,33.35
2023-03-08T09:59:59.980Z,32.90
2023-03-08T10:02:37.758Z,32.99
2023-03-08T10:05:14.310Z,33.26
2023-03-08T10:07:51.169Z,32.27
2023-03-08T10:10:31.039Z,32.82
2023-03-08T10:13:12.578Z,33.25
2023-03-08T10:15:44.603Z,34.45
2023-03-08T10:18:18.644Z,35.10
2023-03-08T10:20:47.046Z,36.38
2023-03-08T10:23:17.852Z,37.27
2023-03-08T10:25:46.027Z,37.54
2023-03-08T10:28:16.995Z,37.23
2023-03-08T10:30:49.063Z,37.11
2023-03-08T10:33:19.744Z,36.98
2023-03-08T10:35:57.659Z,37.63
2023-03-08T10:38:27.547Z,38.42
2023-03-08T10:41:02.428Z,39.03
2023-03-08T10:43:33.167Z,39.64
2023-03-08T10:46:06.866Z,40.58
2023-03-08T10:48:34.739Z,41.22
2023-03-08T10:51:06.854Z,41.83
2023-03-08T10:53:34.986Z,42.16
2023-03-08T10:56:04.115Z,42.61
2023-03-08T10:58:39.576Z,43.28
2023-03-08T11:01:25.509Z,43.78
2023-03-08T11:04:03.728Z,44.38
2023-03-08T11:06:31.305Z,45.05
2023-03-08T11:09:01.248Z,45.51
2023-03-08T11:11:28.919Z,45.63
2023-03-08T11:13:57.673Z,45.44
2023-03-08T11:16:49.763Z,45.84
2023-03-08T11:19:40.585Z,45.82
2023-03-08T11:22:20.037Z,46.29
2023-03-08T11:25:02.635Z,46.25
2023-03-08T11:27:45.359Z,46.66
2023-03-08T11:30:27.437Z,45.94
2023-03-08T11:33:16.005Z,45.95
2023-03-08T11:35:51.616Z,45.85
2023-03-08T11:38:23.926Z,45.65
2023-03-08T11:41:21.322Z,45.65
2023-03-08T11:44:07.112Z,45.62
2023-03-08T11:46:45.412Z,45.68
2023-03-08T11:49:30.945Z,45.30
2023-03-08T11:52:09.103Z,45.50
2023-03-08T11:55:01.886Z,45.57
2023-03-08T11:57:34.581Z,44.82
2023-03-08T12:00:13.146Z,44.97
2023-03-08T12:02:46.443Z,45.19
2023-03-08T12:05:27.271Z,44.70
2023-03-08T12:08:04.545Z,44.64
2023-03-08T12:10:38.228Z,43.64
2023-03-08T12:13:16.094Z,42.32
2023-03-08T12:15:50.186Z,41.83
2023-03-08T12:18:22.249Z,41.51
2023-03-08T12:20:51.407Z,41.37
2023-03-08T12:23:27.658Z,41.91
2023-03-08T12:26:23.059Z,42.42
2023-03-08T12:28:54.366Z,42.73
2023-03-08T12:31:29.717Z,42.79
2023-03-08T12:33:59.035Z,42.84
2023-03-08T12:36:39.761Z,43.09
2023-03-08T12:39:11.655Z,43.87
2023-03-08T12:41:39.023Z,44.41
2023-03-08T12:44:08.294Z,44.49
2023-03-08T12:47:02.785Z,44.45
2023-03-08T12:49:36.899Z,44.27
2023-03-08T12:52:24.772Z,44.15
2023-03-08T12:55:02.573Z,44.17
2023-03-08T12:57:32.818Z,44.03
2023-03-08T13:00:04.887Z,44.19
2023-03-08T13:02:34.556Z,44.82
2023-03-08T13:05:22.328Z,44.80
2023-03-08T13:08:08.981Z,45.10
2023-03-08T13:10:39.210Z,44.85
2023-03-08T13:13:38.274Z,44.84
2023-03-08T13:16:19.542Z,45.22
2023-03-08T13:18:49.496Z,45.55
2023-03-08T13:21:27.164Z,45.69
2023-03-08T13:24:00.512Z,45.15
2023-03-08T13:26:56.030Z,45.32
2023-03-08T13:29:23.984Z,45.12
2023-03-08T13:31:52.630Z,45.41
2023-03-08T13:34:31.595Z,45.63
2023-03-08T13:36:59.071Z,45.48
2023-03-08T13:39:28.798Z,45.25
2023-03-08T13:42:06.801Z,45.18
2023-03-08T13:44:34.256Z,45.31
2023-03-08T13:47:05.993Z,45.64
2023-03-08T13:49:36.882Z,45.17
2023-03-08T13:52:17.109Z,44.80
2023-03-08T13:54:50.550Z,44.05
2023-03-08T13:57:23.923Z,43.55
2023-03-08T13:59:53.542Z,43.44
2023-03-08T14:02:24.808Z,43.98
2023-03-08T14:04:53.019Z,44.02
2023-03-08T14:07:26.536Z,43.75
2023-03-08T14:09:53.869Z,43.68
2023-03-08T14:12:26.238Z,43.70
2023-03-08T14:14:57.058Z,44.42
2023-03-08T14:17:27.322Z,44.79
2023-03-08T14:20:01.042Z,44.99
2023-03-08T14:22:39.147Z,44.57
2023-03-08T14:25:21.704Z,44.83
2023-03-08T14:27:49.282Z,44.95
2023-03-08T14:30:19.106Z,45.13
2023-03-08T14:32:59.724Z,45.22
2023-03-08T14:35:29.982Z,45.25
2023-03-08T14:37:58.684Z,45.33
2023-03-08T14:40:32.841Z,45.45
2023-03-08T14:43:04.815Z,45.68
2023-03-08T14:45:37.025Z,45.94
2023-03-08T14:48:20.860Z,46.23
2023-03-08T14:50:57.473Z,46.55
2023-03-08T14:53:30.519Z,46.79
2023-03-08T14:55:58.787Z,46.82
2023-03-08T14:58:29.013Z,46.68
2023-03-08T15:00:58.760Z,46.78
2023-03-08T15:03:26.446Z,46.89
2023-03-08T15:05:54.011Z,47.14
2023-03-08T15:08:21.855Z,47.68
2023-03-08T15:10:50.622Z,47.64
2023-03-08T15:13:19.479Z,47.88
2023-03-08T15:15:48.158Z,48.10
2023-03-08T15:18:15.617Z,48.33
2023-03-08T15:20:52.232Z,48.25
2023-03-08T15:23:27.232Z,48.44
2023-03-08T15:26:21.027Z,48.69
2023-03-08T15:28:48.369Z,48.93
2023-03-08T15:31:15.730Z,48.95
2023-03-08T15:33:50.906Z,49.03
2023-03-08T15:36:35.901Z,48.83
2023-03-08T15:39:05.950Z,48.71
2023-03-08T15:41:53.887Z,48.71
2023-03-08T15:44:24.266Z,48.89
2023-03-08T15:46:52.980Z,49.08
2023-03-08T15:49:20.591Z,49.27
2023-03-08T15:51:48.335Z,49.45
2023-03-08T15:54:15.475Z,49.61
2023-03-08T15:56:43.052Z,49.95
2023-03-08T15:59:10.722Z,50.09
2023-03-08T16:01:50.912Z,49.91
2023-03-08T16:04:21.458Z,50.16
2023-03-08T16:06:48.807Z,50.27
2023-03-08T16:09:36.551Z,50.19
2023-03-08T16:12:14.428Z,50.13
2023-03-08T16:14:57.406Z,50.43
2023-03-08T16:17:29.882Z,50.67
2023-03-08T16:19:59.903Z,50.91
2023-03-08T16:22:29.016Z,51.00
2023-03-08T16:24:56.421Z,51.47
2023-03-08T16:27:24.396Z,51.70
2023-03-08T16:30:02.309Z,51.77
2023-03-08T16:32:32.984Z,52.28
2023-03-08T16:35:01.322Z,52.54
2023-03-08T16:37:31.257Z,53.13
2023-03-08T16:40:02.221Z,53.01
2023-03-08T16:42:30.637Z,53.40
2023-03-08T16:44:58.597Z,53.75
2023-03-08T16:47:27.425Z,54.31
2023-03-08T16:49:54.869Z,55.14
2023-03-08T16:52:22.540Z,55.40
2023-03-08T16:55:00.804Z,55.99
2023-03-08T16:57:28.167Z,56.90
2023-03-08T16:59:55.605Z,57.55
2023-03-08T17:02:24.295Z,57.57
2023-03-08T17:04:52.400Z,57.62
2023-03-08T17:07:20.370Z,57.88
2023-03-08T17:10:10.229Z,58.18
2023-03-08T17:12:37.449Z,58.70
2023-03-08T17:15:10.407Z,59.23
2023-03-08T17:17:39.228Z,59.31
2023-03-08T17:20:11.105Z,60.39
2023-03-08T17:22:38.609Z,61.50
2023-03-08T17:25:06.619Z,62.69
2023-03-08T17:27:33.853Z,63.32
2023-03-08T17:30:02.681Z,63.90
2023-03-08T17:32:31.744Z,64.89
2023-03-08T17:34:59.294Z,64.56
2023-03-08T17:37:46.927Z,65.50
2023-03-08T17:40:15.459Z,65.86
2023-03-08T17:42:54.282Z,66.42
2023-03-08T17:45:21.706Z,67.39
2023-03-08T17:47:49.512Z,67.41
2023-03-08T17:50:16.662Z,67.73
2023-03-08T17:52:44.414Z,68.30
2023-03-08T17:55:13.001Z,68.81
2023-03-08T17:57:40.506Z,69.64
2023-03-08T18:00:12.291Z,70.06
2023-03-08T18:02:42.398Z,70.04
2023-03-08T18:05:22.259Z,69.93
2023-03-08T18:07:50.396Z,70.79
2023-03-08T18:10:17.946Z,70.50
2023-03-08T18:12:45.175Z,70.98
2023-03-08T18:15:14.692Z,71.01
2023-03-08T18:17:41.972Z,70.94
2023-03-08T18:20:12.872Z,71.26
2023-03-08T18:22:42.478Z,71.35
2023-03-08T18:25:13.113Z,72.06
2023-03-08T18:27:50.677Z,71.81
2023-03-08T18:30:19.101Z,72.07
2023-03-08T18:32:46.468Z,72.05
2023-03-08T18:35:14.541Z,73.22
2023-03-08T18:37:42.135Z,74.33
2023-03-08T18:40:12.710Z,74.17
2023-03-08T18:42:40.095Z,73.97
2023-03-08T18:45:10.099Z,74.47
2023-03-08T18:47:41.032Z,75.36
2023-03-08T18:50:10.405Z,75.53
2023-03-08T18:52:40.247Z,75.80
2023-03-08T18:55:09.941Z,76.18
2023-03-08T18:57:37.197Z,76.46
2023-03-08T19:00:10.486Z,76.66
2023-03-08T19:02:37.887Z,76.96
2023-03-08T19:05:05.691Z,77.59
2023-03-08T19:07:33.069Z,77.88
2023-03-08T19:10:03.610Z,77.81
2023-03-08T19:12:33.836Z,78.70
2023-03-08T19:15:03.485Z,78.84
2023-03-08T19:17:30.836Z,78.77
2023-03-08T19:19:58.094Z,79.02
2023-03-08T19:22:25.498Z,79.69
2023-03-08T19:24:52.800Z,79.56
2023-03-08T19:27:20.019Z,80.03
2023-03-08T19:29:47.694Z,79.94
2023-03-08T19:32:17.886Z,80.29
2023-03-08T19:34:46.060Z,80.55
2023-03-08T19:37:15.192Z,80.94
2023-03-08T19:39:43.895Z,80.79
2023-03-08T19:42:15.926Z,81.03
2023-03-08T19:44:44.459Z,81.41
2023-03-08T19:47:12.052Z,81.58
2023-03-08T19:49:40.451Z,81.18
2023-03-08T19:52:08.860Z,81.43
2023-03-08T19:54:36.395Z,81.44
2023-03-08T19:57:04.625Z,81.58
2023-03-08T19:59:31.857Z,81.38
2023-03-08T20:02:01.570Z,81.51
2023-03-08T20:04:31.239Z,81.72
2023-03-08T20:07:03.228Z,81.70
2023-03-08T20:09:30.873Z,81.56
2023-03-08T20:11:59.327Z,81.77
2023-03-08T20:14:28.122Z,81.80
2023-03-08T20:16:55.868Z,81.77
2023-03-08T20:19:26.471Z,81.56
2023-03-08T20:21:57.012Z,81.37
2023-03-08T20:24:27.711Z,81.29
2023-03-08T20:26:59.348Z,81.45
2023-03-08T20:29:26.643Z,81.25
2023-03-08T20:31:58.431Z,81.42
2023-03-08T20:34:27.473Z,81.06
2023-03-08T20:36:54.855Z,81.18
2023-03-08T20:39:42.804Z,81.12
2023-03-08T20:42:10.041Z,81.18
2023-03-08T20:44:41.112Z,81.01
2023-03-08T20:47:08.854Z,81.09
2023-03-08T20:49:36.006Z,81.01
2023-03-08T20:52:06.509Z,80.90
2023-03-08T20:54:34.190Z,80.89
2023-03-08T20:57:21.642Z,80.75
2023-03-08T20:59:49.888Z,80.70
2023-03-08T21:02:17.684Z,80.66
2023-03-08T21:04:48.832Z,80.61
2023-03-08T21:07:16.222Z,80.53
2023-03-08T21:09:44.106Z,80.44
2023-03-08T21:12:11.730Z,80.23
2023-03-08T21:14:39.038Z,80.17
2023-03-08T21:17:06.387Z,80.14
2023-03-08T21:19:36.801Z,80.31
2023-03-08T21:22:05.499Z,80.42
2023-03-08T21:24:35.070Z,80.48
2023-03-08T21:27:02.560Z,80.64
2023-03-08T21:29:30.469Z,80.54
2023-03-08T21:31:58.318Z,80.52
2023-03-08T21:34:25.622Z,80.30
2023-03-08T21:36:52.901Z,80.13
2023-03-08T21:39:20.748Z,80.08
2023-03-08T21:41:49.146Z,79.98
2023-03-08T21:44:20.948Z,79.89
2023-03-08T21:46:49.155Z,79.82
2023-03-08T21:49:21.707Z,79.77
2023-03-08T21:51:49.039Z,79.58
2023-03-08T21:54:36.777Z,79.60
2023-03-08T21:57:04.288Z,79.61
2023-03-08T21:59:31.859Z,79.62
2023-03-08T22:02:02.410Z,79.65
2023-03-08T22:04:33.140Z,79.51
2023-03-08T22:07:00.520Z,79.30
2023-03-08T22:09:29.520Z,79.20
2023-03-08T22:11:58.648Z,79.36
2023-03-08T22:14:46.429Z,79.23
2023-03-08T22:17:16.082Z,79.19
2023-03-08T22:19:44.195Z,79.23
2023-03-08T22:22:11.925Z,79.25
2023-03-08T22:24:41.484Z,79.33
2023-03-08T22:27:10.849Z,79.33
2023-03-08T22:29:38.825Z,79.26
2023-03-08T22:32:07.420Z,79.17
2023-03-08T22:34:35.703Z,79.20
2023-03-08T22:37:23.505Z,79.18
2023-03-08T22:39:53.198Z,79.01
2023-03-08T22:42:25.581Z,78.79
2023-03-08T22:44:53.184Z,78.90
2023-03-08T22:47:20.360Z,78.58
2023-03-08T22:49:52.525Z,78.63
2023-03-08T22:52:22.492Z,78.66
2023-03-08T22:54:53.039Z,78.71
2023-03-08T22:57:23.688Z,78.65
2023-03-08T22:59:59.247Z,78.72
2023-03-08T23:02:30.740Z,78.62
2023-03-08T23:05:00.933Z,78.53
2023-03-08T23:07:28.171Z,78.72
2023-03-08T23:09:55.465Z,78.64
2023-03-08T23:12:34.194Z,78.74
2023-03-08T23:16:16.966Z,78.83
2023-03-08T23:19:03.008Z,78.95
2023-03-08T23:21:35.819Z,78.95
2023-03-08T23:27:41.577Z,78.88
2023-03-08T23:30:19.858Z,78.97
2023-03-08T23:33:49.722Z,78.93
2023-03-08T23:36:19.279Z,79.11
2023-03-08T23:38:47.065Z,79.12
2023-03-08T23:41:16.435Z,79.25
2023-03-08T23:43:44.377Z,79.30
2023-03-08T23:46:14.205Z,79.35
2023-03-08T23:48:41.909Z,79.42
2023-03-08T23:51:10.902Z,79.50
2023-03-08T23:53:38.709Z,79.64
2023-03-08T23:56:07.149Z,79.58
2023-03-08T23:58:34.853Z,79.65
